Sudbury Airport
CYSB : now visible

Airfield :











YOU CAN JOIN US ON...

 
LOGIN :

Register | Disclaimer

   EN    FR    IT 

 









Legend :    VFR   Marginal VFR   IFR   Intensive IFR   Very Intensive IFR
Visi :
Ceiling :
>= 8 km
>= 3000ft
5 to 8 km
1000 to 3000 ft
1500m to 5 km
500 to 1000 ft
800 to 1500m
200 to 500 ft
< 800m
< 200 ft
Symbols :   Thunderstorms  Fog  Heavy snow  Heavy precipitations  Wind > 20 kt






- Airport Elevation : 1141 ft
- IATA code : YSB


CYSB - Sudbury

CURRENT METAR :
  • 021300Z 18016G22KT 12SM OVC013 00/M02 A3003 RMK SC8 SLP190

EXPIRED METARs :
  • 021200Z 16013G20KT 15SM BKN013 OVC090 M01/M02 A3004 RMK SC6AC2 SLP194
  • 021100Z 17016KT 15SM BKN012 OVC090 M01/M02 A3008 RMK SC6AC2 PRESFR SLP206

TAF TAF CYSB
Valid from the 02 at 08:00 until the 02 at 20:00 UTC


020740Z 0208/0220 18007KT P6SM SCT020 BKN110
TEMPO 0208/0214 BKN020 OVC110
BECMG 0210/0212 19012G22KT
FM021400 19012G22KT P6SM BKN030 BKN180
TEMPO 0214/0216 5SM -SNRA BKN020 BKN180
FM021600 19015G25KT P6SM BKN030 BKN100 RMK NXT FCST BY 021400Z
CZYZ FIR / North America



MET'MAP, your aeronautical weather chart ! - Copyright ORBIFLY December 2007 - Disclaimer

ORBIFLY MET'MAP TEAM :

Programming & Development : Alexandra Zaïnal
Original concept : Baudouin d'Aumeries
Technical & hardware support : Manuel Goepfert
Assistance : Marc-Olivier Méhu




SOURCES & CREDITS :

   NOAA       Earth
Advisory